McCartys, New Mexico
Current Conditions -  °F | °C
As of 5:37 AM on Monday 20 Oct 2014 (Local Time) from KGNT Reporting Station
Clear Clear  
Wind Chill: 30°   Ceiling: Unl
Heat Index: 34°   Visibility: 10mi
Dew Point: 32°   Wind: 5mph
Humidity: 93%   Direction: 320°NW
Pressure: 30.24"   Gusts: NA
Location:  35.0816°N, 107.597°W
Report Text: KGNT 201137Z AUTO 32004KT 10SM CLR 01/00 A3024 RMK AO2
Loading
Personal Weather Stations






























Interactive Weather Map
Tropical Storm Tracking
New forecast layout! Learn more

10-Day Weather Forecast

Advertisements
Track Severe Weather on mobile